Time;durP1;ratioP1;P1;durP2;ratioP2;P2;SDS_P1;SDS_P2;PMS_P1;PMS_P2;Temp;Humidity;BMP_temperature;BMP_pressure;BME280_temperature;BME280_humidity;BME280_pressure;Samples;Min_cycle;Max_cycle;Signal;HPM_P1;HPM_P2
2023/02/18 00:00:26;;;;;;;63.60;4.75;;;8.60;99.90;;;;;;5084124;28;20058;-77
2023/02/18 00:02:54;;;;;;;66.15;3.88;;;8.60;99.90;;;;;;5076265;28;20028;-77
2023/02/18 00:05:20;;;;;;;2.25;1.92;;;8.60;99.90;;;;;;5079474;28;20550;-77
2023/02/18 00:07:46;;;;;;;12.45;2.45;;;8.60;99.90;;;;;;5081481;28;20057;-77
2023/02/18 00:10:13;;;;;;;2.65;2.30;;;8.50;99.90;;;;;;5079377;28;20060;-77
2023/02/18 00:12:39;;;;;;;60.35;4.05;;;8.50;99.90;;;;;;5076609;28;20032;-77
2023/02/18 00:15:05;;;;;;;5.50;2.47;;;8.60;99.90;;;;;;5079401;28;20097;-77
2023/02/18 00:17:31;;;;;;;94.55;4.80;;;8.60;99.90;;;;;;5081336;28;20039;-77
2023/02/18 00:19:57;;;;;;;13.30;2.20;;;8.50;99.90;;;;;;5075299;28;20085;-77
2023/02/18 00:22:23;;;;;;;9.20;2.53;;;8.50;99.90;;;;;;5077781;28;20032;-77
2023/02/18 00:24:50;;;;;;;2.85;2.50;;;8.50;99.90;;;;;;5075196;28;20016;-76
2023/02/18 00:27:16;;;;;;;3.80;2.22;;;8.60;99.90;;;;;;5064150;28;20021;-77
2023/02/18 00:29:42;;;;;;;34.10;3.65;;;8.50;99.90;;;;;;5064759;28;20051;-77
2023/02/18 00:32:08;;;;;;;2.95;2.45;;;8.60;99.90;;;;;;5065102;28;20093;-77
2023/02/18 00:34:34;;;;;;;2.70;2.50;;;8.60;99.90;;;;;;5079281;28;20020;-77
2023/02/18 00:37:03;;;;;;;18.50;3.25;;;8.50;99.90;;;;;;5082773;28;20051;-77
2023/02/18 00:39:29;;;;;;;162.00;10.23;;;8.50;99.90;;;;;;5085450;28;20039;-77
2023/02/18 00:41:55;;;;;;;20.73;2.50;;;8.50;99.90;;;;;;5079879;28;20682;-77
2023/02/18 00:44:20;;;;;;;7.90;2.50;;;8.50;99.90;;;;;;5083024;28;20617;-77
2023/02/18 00:46:48;;;;;;;12.98;2.60;;;8.50;99.90;;;;;;5063413;28;20064;-77
2023/02/18 00:49:15;;;;;;;3.42;2.50;;;8.50;99.90;;;;;;5094387;28;20066;-77
2023/02/18 00:51:40;;;;;;;73.63;5.18;;;8.40;99.90;;;;;;5078528;28;20090;-77
2023/02/18 00:54:06;;;;;;;47.10;3.08;;;8.50;99.90;;;;;;5085694;28;20043;-77
2023/02/18 00:56:32;;;;;;;14.77;2.78;;;8.50;99.90;;;;;;5081714;28;20046;-77
2023/02/18 00:58:58;;;;;;;146.95;8.07;;;8.50;99.90;;;;;;5081139;28;20120;-77
2023/02/18 01:01:24;;;;;;;50.30;3.58;;;8.40;99.90;;;;;;5080052;28;20527;-77
2023/02/18 01:03:50;;;;;;;51.78;4.68;;;8.40;99.90;;;;;;5059740;28;20090;-77
2023/02/18 01:06:16;;;;;;;23.98;2.25;;;8.40;99.90;;;;;;5083933;28;20149;-77
2023/02/18 01:08:41;;;;;;;73.60;7.43;;;8.40;99.90;;;;;;5061778;28;20506;-77
2023/02/18 01:11:09;;;;;;;4.20;2.03;;;8.40;99.90;;;;;;5080765;28;20028;-77
2023/02/18 01:13:35;;;;;;;91.80;5.38;;;8.40;99.90;;;;;;5080231;28;20089;-77
2023/02/18 01:16:01;;;;;;;4.22;2.28;;;8.40;99.90;;;;;;5081562;28;20582;-77
2023/02/18 01:18:29;;;;;;;24.30;2.53;;;8.40;99.90;;;;;;5086426;28;20074;-76
2023/02/18 01:20:55;;;;;;;7.63;2.83;;;8.40;99.90;;;;;;5080843;28;20082;-77
2023/02/18 01:23:21;;;;;;;53.28;4.07;;;8.40;99.90;;;;;;5044161;28;20036;-77
2023/02/18 01:25:47;;;;;;;156.05;8.35;;;8.40;99.90;;;;;;5063774;28;20024;-77
2023/02/18 01:28:14;;;;;;;8.75;3.10;;;8.40;99.90;;;;;;5082495;28;20456;-76
2023/02/18 01:30:40;;;;;;;5.75;2.90;;;8.30;99.90;;;;;;5082421;28;20119;-77
2023/02/18 01:33:06;;;;;;;5.97;3.90;;;8.30;99.90;;;;;;5086070;28;20020;-77
2023/02/18 01:35:33;;;;;;;6.28;4.18;;;8.30;99.90;;;;;;5086243;28;20067;-76
2023/02/18 01:37:59;;;;;;;7.07;3.83;;;8.30;99.90;;;;;;5069879;28;20338;-77
2023/02/18 01:40:27;;;;;;;51.13;5.53;;;8.30;99.90;;;;;;5084973;28;20048;-77
2023/02/18 01:42:53;;;;;;;27.98;4.72;;;8.40;99.90;;;;;;5079579;28;20028;-77
2023/02/18 01:45:37;;;;;;;5.25;3.83;;;8.30;99.90;;;;;;5080053;28;20518;-77
2023/02/18 01:48:12;;;;;;;94.40;7.07;;;8.30;99.90;;;;;;5060951;28;20050;-77
2023/02/18 01:50:43;;;;;;;46.05;5.10;;;8.30;99.90;;;;;;5083403;28;20027;-77
2023/02/18 01:53:09;;;;;;;22.40;4.25;;;8.30;99.90;;;;;;5083534;28;20352;-77
2023/02/18 01:55:37;;;;;;;8.45;3.42;;;8.30;99.90;;;;;;5079227;28;20143;-77
2023/02/18 01:58:05;;;;;;;5.57;3.88;;;8.20;99.90;;;;;;5079024;28;20056;-76
2023/02/18 02:00:31;;;;;;;40.58;5.68;;;8.30;99.90;;;;;;5073948;28;20040;-77
2023/02/18 02:02:57;;;;;;;18.60;3.97;;;8.30;99.90;;;;;;5080469;28;20617;-77
2023/02/18 02:05:23;;;;;;;45.55;5.63;;;8.30;99.90;;;;;;5044632;28;20101;-77
2023/02/18 02:07:52;;;;;;;4.32;3.42;;;8.30;99.90;;;;;;5074188;28;20024;-77
2023/02/18 02:10:19;;;;;;;12.70;3.70;;;8.30;99.90;;;;;;5082511;28;20021;-77
2023/02/18 02:13:06;;;;;;;11.20;2.97;;;8.20;99.90;;;;;;5088616;28;20192;-77
2023/02/18 02:16:05;;;;;;;92.40;5.47;;;8.30;99.90;;;;;;5078356;28;20032;-77
2023/02/18 02:19:05;;;;;;;12.80;2.50;;;8.30;99.90;;;;;;5079275;28;20736;-77
2023/02/18 02:21:51;;;;;;;20.02;3.63;;;8.30;99.90;;;;;;5042934;28;20037;-77
2023/02/18 02:24:22;;;;;;;;;;;8.30;99.90;;;;;;5080386;28;20067;-77
2023/02/18 02:27:06;;;;;;;24.55;3.92;;;8.30;99.90;;;;;;5078512;28;20003;-77
2023/02/18 02:30:02;;;;;;;44.33;5.32;;;8.30;99.90;;;;;;5085945;28;20047;-77
2023/02/18 02:32:41;;;;;;;;;;;8.30;99.90;;;;;;5076638;28;20028;-77
2023/02/18 02:35:27;;;;;;;4.53;2.95;;;8.20;99.90;;;;;;5074408;28;19934;-77
2023/02/18 02:37:56;;;;;;;;;;;8.20;99.90;;;;;;5083908;28;20070;-77
2023/02/18 02:40:45;;;;;;;4.88;3.35;;;8.20;99.90;;;;;;5080221;28;19909;-77
2023/02/18 02:43:29;;;;;;;10.93;4.47;;;8.20;99.90;;;;;;5076616;28;20024;-77
2023/02/18 02:46:10;;;;;;;21.92;4.38;;;8.20;99.90;;;;;;5083007;28;20391;-77
2023/02/18 02:48:57;;;;;;;9.75;3.72;;;8.30;99.90;;;;;;5082347;28;20036;-77
2023/02/18 02:51:30;;;;;;;6.15;3.45;;;8.20;99.90;;;;;;5072996;28;20025;-77
2023/02/18 02:54:21;;;;;;;18.90;4.10;;;8.30;99.90;;;;;;5076472;28;20031;-77
2023/02/18 02:56:47;;;;;;;5.07;2.70;;;8.20;99.90;;;;;;5094663;28;20032;-77
2023/02/18 02:59:21;;;;;;;61.92;5.53;;;8.20;99.90;;;;;;5064376;28;20033;-77
2023/02/18 03:02:28;;;;;;;4.25;3.05;;;8.20;99.90;;;;;;5077075;28;20122;-77
2023/02/18 03:05:05;;;;;;;9.27;3.25;;;8.20;99.90;;;;;;5074571;28;20040;-77
2023/02/18 03:07:49;;;;;;;4.70;3.22;;;8.20;99.90;;;;;;5073313;28;20403;-76
2023/02/18 03:10:36;;;;;;;5.57;3.30;;;8.20;99.90;;;;;;5078781;28;20016;-77
2023/02/18 03:13:32;;;;;;;12.18;4.32;;;8.20;99.90;;;;;;5076338;28;20111;-77
2023/02/18 03:16:12;;;;;;;6.82;4.88;;;8.20;99.90;;;;;;5077354;28;20023;-76
2023/02/18 03:18:52;;;;;;;7.75;4.10;;;8.30;99.90;;;;;;5078375;28;20028;-76
2023/02/18 03:21:25;;;;;;;8.90;3.63;;;8.20;99.90;;;;;;5085552;28;20036;-77
2023/02/18 03:24:12;;;;;;;12.70;4.20;;;8.20;99.90;;;;;;5075429;28;20086;-77
2023/02/18 03:26:44;;;;;;;8.95;3.70;;;8.20;99.90;;;;;;5077198;28;20460;-77
2023/02/18 03:29:12;;;;;;;6.15;4.07;;;8.20;99.90;;;;;;5070073;28;20025;-77
2023/02/18 03:31:42;;;;;;;6.22;4.38;;;8.30;99.90;;;;;;5083121;28;20489;-77
2023/02/18 03:34:15;;;;;;;9.98;4.35;;;8.20;99.90;;;;;;5085166;28;20480;-77
2023/02/18 03:36:42;;;;;;;16.48;4.30;;;8.30;99.90;;;;;;5068400;28;20032;-77
2023/02/18 03:39:15;;;;;;;46.47;5.35;;;8.30;99.90;;;;;;5078664;28;20115;-77
2023/02/18 03:41:42;;;;;;;22.83;4.88;;;8.30;99.90;;;;;;5083114;28;20033;-77
2023/02/18 03:44:09;;;;;;;8.00;4.10;;;8.30;99.90;;;;;;5058336;28;20028;-76
2023/02/18 03:46:38;;;;;;;42.42;5.72;;;8.30;99.90;;;;;;5080319;28;20032;-77
2023/02/18 03:49:04;;;;;;;4.85;3.80;;;8.30;99.90;;;;;;5083850;28;20035;-77
2023/02/18 03:51:30;;;;;;;5.93;3.60;;;8.30;99.90;;;;;;5060442;28;20032;-76
2023/02/18 03:53:56;;;;;;;18.08;4.18;;;8.30;99.90;;;;;;5073906;28;20032;-77
2023/02/18 03:56:22;;;;;;;55.55;5.32;;;8.30;99.90;;;;;;5081246;28;20032;-77
2023/02/18 03:58:48;;;;;;;209.65;9.57;;;8.30;99.90;;;;;;5081708;28;20480;-77
2023/02/18 04:01:14;;;;;;;34.92;3.45;;;8.30;99.90;;;;;;5078351;28;20103;-77
2023/02/18 04:03:40;;;;;;;13.98;2.50;;;8.20;99.90;;;;;;5075268;28;20094;-77
2023/02/18 04:06:06;;;;;;;45.80;3.40;;;8.20;99.90;;;;;;5081484;28;20028;-77
2023/02/18 04:08:33;;;;;;;29.50;2.67;;;8.30;99.90;;;;;;5081665;28;20618;-76
2023/02/18 04:10:58;;;;;;;43.92;3.53;;;8.20;99.90;;;;;;5079818;28;20034;-77
2023/02/18 04:13:24;;;;;;;21.00;2.40;;;8.20;99.90;;;;;;5074894;28;20024;-76
2023/02/18 04:15:50;;;;;;;42.15;3.92;;;8.20;99.90;;;;;;5078471;28;20039;-77
2023/02/18 04:18:17;;;;;;;36.30;3.78;;;8.20;99.90;;;;;;5083268;28;20055;-77
2023/02/18 04:20:43;;;;;;;5.95;2.05;;;8.20;99.90;;;;;;5078617;28;20028;-77
2023/02/18 04:23:09;;;;;;;4.93;2.50;;;8.10;99.90;;;;;;5073560;28;20797;-77
2023/02/18 04:25:34;;;;;;;3.05;1.70;;;8.10;99.90;;;;;;5086357;28;20036;-77
2023/02/18 04:28:03;;;;;;;15.15;3.00;;;8.10;99.90;;;;;;5092813;28;20085;-77
2023/02/18 04:30:28;;;;;;;6.70;2.78;;;8.20;99.90;;;;;;5086016;28;20028;-77
2023/02/18 04:32:54;;;;;;;147.02;8.57;;;8.10;99.90;;;;;;5088632;28;20032;-77
2023/02/18 04:35:20;;;;;;;3.78;2.40;;;8.10;99.90;;;;;;5055994;28;20051;-77
2023/02/18 04:37:46;;;;;;;10.35;2.42;;;8.10;99.90;;;;;;5087894;28;20029;-77
2023/02/18 04:40:11;;;;;;;38.30;3.22;;;8.10;99.90;;;;;;5084306;28;20086;-77
2023/02/18 04:42:37;;;;;;;9.20;1.38;;;8.20;99.90;;;;;;5082037;28;20090;-77
2023/02/18 04:45:03;;;;;;;67.22;3.47;;;8.20;99.90;;;;;;5072404;28;20028;-77
2023/02/18 04:47:29;;;;;;;5.05;2.00;;;8.20;99.90;;;;;;5088226;28;21129;-77
2023/02/18 04:49:55;;;;;;;2.42;1.90;;;8.20;99.90;;;;;;5067999;28;20540;-77
2023/02/18 04:52:21;;;;;;;3.50;2.05;;;8.20;99.90;;;;;;5085060;28;20110;-78
2023/02/18 04:54:48;;;;;;;3.92;2.00;;;8.20;99.90;;;;;;5083648;28;20396;-77
2023/02/18 04:57:13;;;;;;;9.52;1.90;;;8.20;99.90;;;;;;5082620;28;20091;-76
2023/02/18 04:59:40;;;;;;;1.92;1.40;;;8.30;99.90;;;;;;5082737;28;20491;-77
2023/02/18 05:02:06;;;;;;;8.10;2.00;;;8.20;99.90;;;;;;5087215;28;20392;-78
2023/02/18 05:04:31;;;;;;;8.40;1.88;;;8.30;99.90;;;;;;5084417;28;20020;-77
2023/02/18 05:06:57;;;;;;;28.40;2.63;;;8.20;99.90;;;;;;5087350;28;20035;-77
2023/02/18 05:09:23;;;;;;;49.15;2.80;;;8.20;99.90;;;;;;5086437;28;20031;-76
2023/02/18 05:11:49;;;;;;;25.75;2.33;;;8.30;99.90;;;;;;5083205;28;20021;-77
2023/02/18 05:14:15;;;;;;;11.68;2.25;;;8.20;99.90;;;;;;5077312;28;20036;-77
2023/02/18 05:16:41;;;;;;;3.42;1.40;;;8.20;99.90;;;;;;5085316;28;20095;-78
2023/02/18 05:19:07;;;;;;;4.53;2.22;;;8.20;99.90;;;;;;5083394;28;20044;-78
2023/02/18 05:21:33;;;;;;;4.95;2.40;;;8.20;99.90;;;;;;5078914;28;20036;-78
2023/02/18 05:23:59;;;;;;;3.63;2.60;;;8.20;99.90;;;;;;5086830;28;20074;-78
2023/02/18 05:26:25;;;;;;;4.50;2.55;;;8.20;99.90;;;;;;5080887;28;20063;-78
2023/02/18 05:28:51;;;;;;;3.22;2.30;;;8.10;99.90;;;;;;5087041;28;20145;-78
2023/02/18 05:31:17;;;;;;;2.67;2.10;;;8.10;99.90;;;;;;5082995;28;20076;-77
2023/02/18 05:33:42;;;;;;;15.88;2.95;;;8.20;99.90;;;;;;5079770;28;20092;-77
2023/02/18 05:36:08;;;;;;;30.58;3.25;;;8.20;99.90;;;;;;5080374;28;20047;-78
2023/02/18 05:38:34;;;;;;;76.43;5.00;;;8.20;99.90;;;;;;5078456;28;20036;-78
2023/02/18 05:41:01;;;;;;;114.22;8.10;;;8.20;99.90;;;;;;5079844;28;20037;-78
2023/02/18 05:43:27;;;;;;;53.28;3.90;;;8.20;99.90;;;;;;5080283;28;20074;-78
2023/02/18 05:45:52;;;;;;;2.65;1.85;;;8.20;99.90;;;;;;5084730;28;20020;-78
2023/02/18 05:48:18;;;;;;;2.33;1.55;;;8.10;99.90;;;;;;5083478;28;20028;-78
2023/02/18 05:50:44;;;;;;;1.65;1.30;;;8.10;99.90;;;;;;5081584;28;20039;-78
2023/02/18 05:53:10;;;;;;;2.60;1.55;;;8.10;99.90;;;;;;5081290;28;20205;-78
2023/02/18 05:55:37;;;;;;;2.97;1.38;;;8.10;99.90;;;;;;5085959;28;20028;-78
2023/02/18 05:58:08;;;;;;;3.28;1.50;;;8.10;99.90;;;;;;5089964;28;20028;-78
2023/02/18 06:00:33;;;;;;;3.05;1.55;;;8.10;99.90;;;;;;5064866;28;20507;-77
2023/02/18 06:02:59;;;;;;;3.15;1.70;;;8.10;99.90;;;;;;5080060;28;20040;-77
2023/02/18 06:05:25;;;;;;;2.50;1.40;;;8.10;99.90;;;;;;5080598;28;20032;-77
2023/02/18 06:07:51;;;;;;;1.40;1.30;;;8.10;99.90;;;;;;5066874;28;20175;-78
2023/02/18 06:10:19;;;;;;;1.42;1.20;;;8.20;99.90;;;;;;5080602;28;20035;-77
2023/02/18 06:12:45;;;;;;;1.10;0.93;;;8.20;99.90;;;;;;5087601;28;20109;-77
2023/02/18 06:15:10;;;;;;;1.25;0.90;;;8.10;99.90;;;;;;5065097;28;20048;-78
2023/02/18 06:17:36;;;;;;;1.20;0.95;;;8.10;99.90;;;;;;5078917;28;20039;-78
2023/02/18 06:20:02;;;;;;;2.65;1.05;;;8.10;99.90;;;;;;5086363;28;20042;-77
2023/02/18 06:22:28;;;;;;;0.70;0.70;;;8.10;99.90;;;;;;5081667;28;20031;-78
2023/02/18 06:24:54;;;;;;;2.28;0.90;;;8.10;99.90;;;;;;5082662;28;20384;-78
2023/02/18 06:27:20;;;;;;;4.22;0.77;;;8.10;99.90;;;;;;5077790;28;20089;-78
2023/02/18 06:29:46;;;;;;;1.38;0.70;;;8.10;99.90;;;;;;5085114;28;20516;-78
2023/02/18 06:32:11;;;;;;;1.45;0.85;;;8.10;99.90;;;;;;5081264;28;20049;-78
2023/02/18 06:34:37;;;;;;;1.40;0.80;;;8.10;99.90;;;;;;5078209;28;20044;-78
2023/02/18 06:37:03;;;;;;;1.00;0.90;;;8.10;99.90;;;;;;5084805;28;20443;-77
2023/02/18 06:39:29;;;;;;;1.55;1.10;;;8.10;99.90;;;;;;5093032;28;20066;-78
2023/02/18 06:41:54;;;;;;;5.30;1.60;;;8.10;99.90;;;;;;5083580;28;20398;-78
2023/02/18 06:44:20;;;;;;;3.17;1.30;;;8.10;99.90;;;;;;5076606;28;20107;-78
2023/02/18 06:46:46;;;;;;;1.60;1.23;;;8.10;99.90;;;;;;5064468;28;20923;-77
2023/02/18 06:49:11;;;;;;;2.10;1.30;;;8.10;99.90;;;;;;5080054;28;20518;-76
2023/02/18 06:51:37;;;;;;;4.53;1.67;;;8.20;99.90;;;;;;5059766;28;20079;-76
2023/02/18 06:54:04;;;;;;;6.35;1.40;;;8.20;99.90;;;;;;5081390;28;20055;-77
2023/02/18 06:56:30;;;;;;;1.60;1.40;;;8.20;99.90;;;;;;5081440;28;20040;-77
2023/02/18 06:58:56;;;;;;;3.10;1.60;;;8.20;99.90;;;;;;5077084;28;20035;-76
2023/02/18 07:01:21;;;;;;;3.67;1.30;;;8.30;99.90;;;;;;5048940;28;20496;-76
2023/02/18 07:03:47;;;;;;;1.92;1.50;;;8.30;99.90;;;;;;5076188;28;20028;-76
2023/02/18 07:06:13;;;;;;;2.00;1.20;;;8.40;99.90;;;;;;5074329;28;20043;-77
2023/02/18 07:08:39;;;;;;;133.55;6.53;;;8.40;99.90;;;;;;5063096;28;20079;-75
2023/02/18 07:11:05;;;;;;;132.75;7.45;;;8.40;99.90;;;;;;5081162;28;20028;-77
2023/02/18 07:13:31;;;;;;;2.58;0.80;;;8.40;99.90;;;;;;5083559;28;20038;-77
2023/02/18 07:15:57;;;;;;;13.93;1.40;;;8.40;99.90;;;;;;5083996;28;20111;-76
2023/02/18 07:18:23;;;;;;;23.95;1.65;;;8.40;99.90;;;;;;5068027;28;20036;-77
2023/02/18 07:20:48;;;;;;;34.85;2.63;;;8.40;99.90;;;;;;5089356;28;20028;-77
2023/02/18 07:23:14;;;;;;;29.55;2.50;;;8.50;99.90;;;;;;5082827;28;20031;-76
2023/02/18 07:25:40;;;;;;;21.75;1.33;;;8.50;99.90;;;;;;5080768;28;20062;-77
2023/02/18 07:28:06;;;;;;;0.40;0.40;;;8.50;99.90;;;;;;5061039;28;20028;-77
2023/02/18 07:30:32;;;;;;;0.80;0.60;;;8.50;99.90;;;;;;5065914;28;20082;-77
2023/02/18 07:32:58;;;;;;;0.40;0.38;;;8.60;99.90;;;;;;5066660;28;20089;-77
2023/02/18 07:35:23;;;;;;;1.63;0.40;;;8.60;99.90;;;;;;5083479;28;20735;-77
2023/02/18 07:37:49;;;;;;;44.90;3.03;;;8.60;99.90;;;;;;5080664;28;20488;-77
2023/02/18 07:40:19;;;;;;;0.50;0.30;;;8.70;99.90;;;;;;5084151;28;20369;-78
2023/02/18 07:42:45;;;;;;;0.20;0.20;;;8.70;99.90;;;;;;5074888;28;20060;-78
2023/02/18 07:45:11;;;;;;;0.52;0.50;;;8.70;99.90;;;;;;5079611;28;20081;-77
2023/02/18 07:47:37;;;;;;;0.45;0.30;;;8.80;99.90;;;;;;5062771;28;20035;-78
2023/02/18 07:50:04;;;;;;;0.40;0.30;;;8.80;99.90;;;;;;5080888;28;20303;-78
2023/02/18 07:52:30;;;;;;;0.20;0.20;;;8.80;99.90;;;;;;5078235;28;20032;-78
2023/02/18 07:54:56;;;;;;;0.82;0.60;;;8.80;99.90;;;;;;5080675;28;20043;-78
2023/02/18 07:57:21;;;;;;;0.30;0.30;;;8.80;99.90;;;;;;5080019;28;20027;-78
2023/02/18 07:59:47;;;;;;;0.65;0.40;;;8.90;99.90;;;;;;5063988;28;20028;-78
2023/02/18 08:02:18;;;;;;;0.50;0.50;;;8.90;99.90;;;;;;5076917;28;20041;-78
2023/02/18 08:04:44;;;;;;;0.30;0.30;;;9.00;99.90;;;;;;5085628;28;20048;-77
2023/02/18 08:07:18;;;;;;;0.77;0.50;;;9.00;99.90;;;;;;5080072;28;20377;-78
2023/02/18 08:09:44;;;;;;;0.47;0.47;;;9.00;99.90;;;;;;5078202;28;20100;-77
2023/02/18 08:12:10;;;;;;;0.82;0.82;;;9.10;99.90;;;;;;5079952;28;20320;-77
2023/02/18 08:14:35;;;;;;;1.05;0.77;;;9.00;99.90;;;;;;5082288;28;20420;-78
2023/02/18 08:17:01;;;;;;;1.95;1.48;;;9.10;99.90;;;;;;5081583;28;20032;-77
2023/02/18 08:19:27;;;;;;;2.22;1.58;;;9.00;99.90;;;;;;5078802;28;20025;-77
2023/02/18 08:21:53;;;;;;;5.00;3.47;;;9.00;99.90;;;;;;5083865;28;20032;-77
2023/02/18 08:24:18;;;;;;;6.80;4.68;;;9.00;99.90;;;;;;5080436;28;20031;-78
2023/02/18 08:26:44;;;;;;;9.38;5.72;;;9.00;99.90;;;;;;5077865;28;20485;-77
2023/02/18 08:29:10;;;;;;;9.10;5.88;;;8.90;99.90;;;;;;5084440;28;20032;-76
2023/02/18 08:31:35;;;;;;;9.30;6.53;;;9.00;99.90;;;;;;5083909;28;20032;-77
2023/02/18 08:34:02;;;;;;;16.48;6.95;;;9.00;99.90;;;;;;5073105;28;20024;-77
2023/02/18 08:36:29;;;;;;;11.68;8.10;;;9.00;99.90;;;;;;5079445;28;20024;-77
2023/02/18 08:38:55;;;;;;;11.77;8.18;;;9.00;99.90;;;;;;5079009;28;20024;-77
2023/02/18 08:41:21;;;;;;;12.60;8.20;;;9.00;99.90;;;;;;5079842;28;20728;-76
2023/02/18 08:43:48;;;;;;;14.48;9.07;;;9.10;99.90;;;;;;5071705;28;20029;-76
2023/02/18 08:46:14;;;;;;;14.95;10.05;;;9.10;99.90;;;;;;5076373;28;20059;-77
2023/02/18 08:48:40;;;;;;;13.20;9.25;;;9.10;99.90;;;;;;5084774;28;20692;-78
2023/02/18 08:51:21;;;;;;;12.40;9.00;;;9.10;99.90;;;;;;5081656;28;20096;-78
2023/02/18 08:53:48;;;;;;;12.38;9.18;;;9.10;99.90;;;;;;5084469;28;20027;-76
2023/02/18 08:56:16;;;;;;;13.75;9.02;;;9.10;99.90;;;;;;5082889;28;20035;-77
2023/02/18 08:58:41;;;;;;;12.02;8.65;;;9.10;99.90;;;;;;5080401;28;20064;-76
2023/02/18 09:01:09;;;;;;;13.85;9.57;;;9.10;99.90;;;;;;5069463;28;20056;-77
2023/02/18 09:03:36;;;;;;;14.25;9.10;;;9.00;99.90;;;;;;5084965;28;20048;-77
2023/02/18 09:06:02;;;;;;;13.95;9.75;;;9.10;99.90;;;;;;5086779;28;20016;-75
2023/02/18 09:08:28;;;;;;;12.07;9.23;;;9.10;99.90;;;;;;5082522;28;20035;-78
2023/02/18 09:10:59;;;;;;;16.15;9.63;;;9.10;99.90;;;;;;5081339;28;20028;-76
2023/02/18 09:13:25;;;;;;;12.45;9.25;;;9.10;99.90;;;;;;5084478;28;20093;-77
2023/02/18 09:16:03;;;;;;;12.10;9.38;;;9.10;99.90;;;;;;5081285;28;20024;-77
2023/02/18 09:18:29;;;;;;;12.70;9.75;;;9.20;99.90;;;;;;5083553;28;20030;-77
2023/02/18 09:20:56;;;;;;;17.15;10.85;;;9.20;99.90;;;;;;5084684;28;20115;-77
2023/02/18 09:23:23;;;;;;;14.45;9.88;;;9.30;99.90;;;;;;5081882;28;20497;-76
2023/02/18 09:25:49;;;;;;;15.48;9.60;;;9.30;99.90;;;;;;5080913;28;20069;-76
2023/02/18 09:28:15;;;;;;;13.50;10.30;;;9.30;99.90;;;;;;5082366;28;20119;-77
2023/02/18 09:30:41;;;;;;;12.75;10.43;;;9.30;99.90;;;;;;5078888;28;20035;-75
2023/02/18 09:33:07;;;;;;;13.95;9.48;;;9.30;99.90;;;;;;5084559;28;20101;-76
2023/02/18 09:35:32;;;;;;;13.73;10.07;;;9.30;99.90;;;;;;5078746;28;20035;-76
2023/02/18 09:37:58;;;;;;;15.20;10.15;;;9.30;99.90;;;;;;5081057;28;20381;-76
2023/02/18 09:40:28;;;;;;;12.30;9.23;;;9.40;99.90;;;;;;5080133;28;20036;-76
2023/02/18 09:42:56;;;;;;;13.38;8.73;;;9.40;99.90;;;;;;5077475;28;21504;-76
2023/02/18 09:45:22;;;;;;;11.18;8.55;;;9.30;99.90;;;;;;5079812;28;20103;-78
2023/02/18 09:47:49;;;;;;;13.90;9.43;;;9.30;99.90;;;;;;5081565;28;20029;-76
2023/02/18 09:50:22;;;;;;;12.23;9.27;;;9.30;99.90;;;;;;5082552;28;20024;-76
2023/02/18 09:52:48;;;;;;;13.25;9.57;;;9.30;99.90;;;;;;5084409;28;20110;-76
2023/02/18 09:55:22;;;;;;;12.30;9.65;;;9.20;99.90;;;;;;5083210;28;20044;-76
2023/02/18 09:57:52;;;;;;;11.07;8.67;;;9.10;99.90;;;;;;5083023;28;20388;-77
2023/02/18 10:00:43;;;;;;;13.60;8.80;;;9.10;99.90;;;;;;5069303;28;20284;-77
2023/02/18 10:03:15;;;;;;;12.00;8.93;;;9.20;99.90;;;;;;5079306;28;20040;-78
2023/02/18 10:06:08;;;;;;;12.07;8.68;;;9.10;99.90;;;;;;5081710;28;20044;-77
2023/02/18 10:08:36;;;;;;;13.45;9.25;;;9.20;99.90;;;;;;5084757;28;20024;-77
2023/02/18 10:11:03;;;;;;;14.75;10.07;;;9.20;99.90;;;;;;5083562;28;20096;-78
2023/02/18 10:13:32;;;;;;;12.75;9.18;;;9.30;99.90;;;;;;5082652;28;20496;-78
2023/02/18 10:15:58;;;;;;;11.85;8.75;;;9.40;99.90;;;;;;5084722;28;20028;-77
2023/02/18 10:18:25;;;;;;;10.43;8.02;;;9.40;99.90;;;;;;5086054;28;20039;-78
2023/02/18 10:20:55;;;;;;;11.68;9.43;;;9.50;99.90;;;;;;5084158;28;20591;-77
2023/02/18 10:23:23;;;;;;;12.43;8.80;;;9.60;99.90;;;;;;5081794;28;20110;-76
2023/02/18 10:25:50;;;;;;;12.15;9.27;;;9.60;99.90;;;;;;5079017;28;20043;-77
2023/02/18 10:28:19;;;;;;;10.77;8.13;;;9.70;99.90;;;;;;5085498;28;20108;-77
2023/02/18 10:30:57;;;;;;;10.40;7.95;;;9.70;99.90;;;;;;5082006;28;20024;-77
2023/02/18 10:33:33;;;;;;;12.00;7.88;;;9.70;99.90;;;;;;5078575;28;20111;-76
2023/02/18 10:35:59;;;;;;;11.27;8.35;;;9.60;99.90;;;;;;5080667;28;20032;-76
2023/02/18 10:38:43;;;;;;;10.50;7.85;;;9.70;99.90;;;;;;5081685;28;20020;-77
2023/02/18 10:41:22;;;;;;;9.38;8.13;;;9.60;99.90;;;;;;5082078;28;20395;-76
2023/02/18 10:43:53;;;;;;;9.52;7.15;;;9.50;99.90;;;;;;5079614;28;20024;-79
2023/02/18 10:46:48;;;;;;;11.25;8.43;;;9.50;99.90;;;;;;5082286;28;20023;-77
2023/02/18 10:50:01;;;;;;;9.18;7.40;;;9.50;99.90;;;;;;5080983;28;20032;-77
2023/02/18 10:52:39;;;;;;;11.02;8.00;;;9.50;99.90;;;;;;5021950;28;20037;-77
2023/02/18 10:55:17;;;;;;;10.48;7.97;;;9.60;99.90;;;;;;5020524;28;20091;-78
2023/02/18 10:57:54;;;;;;;9.63;7.88;;;9.60;99.90;;;;;;5044626;28;20062;-78
2023/02/18 11:00:23;;;;;;;10.30;7.95;;;9.70;99.90;;;;;;5084330;28;20310;-77
2023/02/18 11:03:14;;;;;;;11.60;8.18;;;9.70;99.90;;;;;;5079508;28;20110;-77
2023/02/18 11:05:40;;;;;;;9.52;7.28;;;9.60;99.90;;;;;;5074682;28;20085;-77
2023/02/18 11:08:15;;;;;;;10.65;8.00;;;9.50;99.90;;;;;;5074639;28;20109;-75
2023/02/18 11:10:43;;;;;;;11.45;7.97;;;9.50;99.90;;;;;;5060256;28;20029;-76
2023/02/18 11:13:13;;;;;;;8.95;7.00;;;9.50;99.90;;;;;;5076168;28;20036;-78
2023/02/18 11:15:55;;;;;;;9.07;7.07;;;9.50;99.90;;;;;;5103920;28;20891;-81
2023/02/18 11:18:42;;;;;;;8.73;6.47;;;9.50;99.90;;;;;;5078130;28;20042;-78
2023/02/18 11:21:34;;;;;;;10.65;7.57;;;9.50;99.90;;;;;;5086434;28;20035;-79
2023/02/18 11:24:13;;;;;;;10.65;7.88;;;9.40;99.90;;;;;;5057433;28;20052;-78
2023/02/18 11:26:40;;;;;;;10.73;8.23;;;9.30;99.90;;;;;;5080798;28;20016;-78
2023/02/18 11:29:22;;;;;;;10.65;8.15;;;9.30;99.90;;;;;;5079962;28;20024;-80
2023/02/18 11:31:52;;;;;;;10.00;7.40;;;9.20;99.90;;;;;;5083848;28;20056;-77
2023/02/18 11:34:22;;;;;;;13.98;7.68;;;9.20;99.90;;;;;;5067778;28;20061;-78
2023/02/18 11:36:49;;;;;;;9.77;6.75;;;9.30;99.90;;;;;;5080061;28;20028;-79
2023/02/18 11:39:26;;;;;;;8.48;7.10;;;9.20;99.90;;;;;;5080556;28;20047;-76
2023/02/18 11:42:01;;;;;;;9.55;7.53;;;9.20;99.90;;;;;;5075644;28;20115;-76
2023/02/18 11:44:36;;;;;;;9.80;7.43;;;9.20;99.90;;;;;;5082831;28;20048;-78
2023/02/18 11:47:13;;;;;;;7.95;6.15;;;9.20;99.90;;;;;;5080174;28;20389;-77
2023/02/18 11:49:44;;;;;;;9.77;7.10;;;9.20;99.90;;;;;;5078049;28;20028;-76
2023/02/18 11:52:17;;;;;;;9.25;6.75;;;9.20;99.90;;;;;;5062347;28;20427;-78
2023/02/18 11:55:17;;;;;;;9.30;7.05;;;9.20;99.90;;;;;;5077678;28;20111;-77
2023/02/18 11:58:00;;;;;;;10.93;7.78;;;9.20;99.90;;;;;;5064662;28;20072;-79
2023/02/18 12:00:40;;;;;;;10.73;7.45;;;9.20;99.90;;;;;;5089939;28;20131;-76
2023/02/18 12:03:30;;;;;;;8.45;6.65;;;9.20;99.90;;;;;;5060296;28;20718;-76
2023/02/18 12:06:00;;;;;;;10.40;6.43;;;9.20;99.90;;;;;;5081764;28;20012;-76
2023/02/18 12:08:31;;;;;;;10.30;7.13;;;9.20;99.90;;;;;;5041470;28;20032;-76
2023/02/18 12:11:10;;;;;;;9.40;6.80;;;9.10;99.90;;;;;;5077999;28;20023;-76
2023/02/18 12:13:45;;;;;;;12.63;8.30;;;9.10;99.90;;;;;;5075777;28;20036;-75
2023/02/18 12:16:30;;;;;;;11.87;7.37;;;9.10;99.90;;;;;;5073086;28;20063;-77
2023/02/18 12:19:02;;;;;;;8.67;6.67;;;9.10;99.90;;;;;;5075289;28;20030;-76
2023/02/18 12:21:56;;;;;;;8.93;6.15;;;9.10;99.90;;;;;;5072573;28;20263;-76
2023/02/18 12:24:36;;;;;;;10.52;6.28;;;9.20;99.90;;;;;;5078143;28;20034;-75
2023/02/18 12:27:19;;;;;;;8.98;6.28;;;9.20;99.90;;;;;;5078053;28;20508;-77
2023/02/18 12:30:02;;;;;;;7.55;5.72;;;9.20;99.90;;;;;;5079457;28;20039;-77
2023/02/18 12:32:39;;;;;;;7.13;5.15;;;9.20;99.90;;;;;;5076447;28;20035;-76
2023/02/18 12:35:36;;;;;;;7.40;5.75;;;9.20;99.90;;;;;;5077387;28;20028;-77
2023/02/18 12:38:01;;;;;;;;;;;9.20;99.90;;;;;;5082597;28;20387;-78
2023/02/18 12:40:38;;;;;;;;;;;9.10;99.90;;;;;;5077960;28;19912;-78
2023/02/18 12:43:21;;;;;;;7.18;5.38;;;9.10;99.90;;;;;;5077121;28;19922;-78
2023/02/18 12:46:13;;;;;;;7.40;5.47;;;9.10;99.90;;;;;;5069998;28;20115;-74
2023/02/18 12:49:01;;;;;;;8.20;5.35;;;9.10;99.90;;;;;;5055190;28;20044;-74
2023/02/18 12:51:39;;;;;;;6.75;5.38;;;9.10;99.90;;;;;;5076848;28;20066;-75
2023/02/18 12:54:31;;;;;;;6.30;5.03;;;9.10;99.90;;;;;;5077291;28;20653;-76
2023/02/18 12:57:09;;;;;;;6.18;4.60;;;9.20;99.90;;;;;;5082369;28;20032;-76
2023/02/18 12:59:35;;;;;;;7.13;4.95;;;9.20;99.90;;;;;;5083931;28;20035;-75
2023/02/18 13:02:21;;;;;;;5.60;4.82;;;9.20;99.90;;;;;;5074771;28;20024;-76
2023/02/18 13:05:11;;;;;;;6.75;5.43;;;9.30;99.90;;;;;;5033776;28;20041;-76
2023/02/18 13:07:55;;;;;;;7.00;4.63;;;9.30;99.90;;;;;;5076892;28;20510;-77
2023/02/18 13:10:39;;;;;;;5.22;4.13;;;9.40;99.90;;;;;;5079990;28;20043;-77